sensor_id;sensor_type;location;lat;lon;timestamp;temperature;humidity
10530;DHT22;5313;48.834;9.228;2023-07-20T00:01:11;21.00;99.90
10530;DHT22;5313;48.834;9.228;2023-07-20T00:03:36;21.10;99.90
10530;DHT22;5313;48.834;9.228;2023-07-20T00:06:02;21.00;99.90
10530;DHT22;5313;48.834;9.228;2023-07-20T00:08:29;20.90;99.90
10530;DHT22;5313;48.834;9.228;2023-07-20T00:10:55;20.70;99.90
10530;DHT22;5313;48.834;9.228;2023-07-20T00:13:20;20.60;99.90
10530;DHT22;5313;48.834;9.228;2023-07-20T00:15:46;20.50;99.90
10530;DHT22;5313;48.834;9.228;2023-07-20T00:18:12;20.40;99.90
10530;DHT22;5313;48.834;9.228;2023-07-20T00:20:38;20.40;99.90
10530;DHT22;5313;48.834;9.228;2023-07-20T00:23:03;20.50;99.90
10530;DHT22;5313;48.834;9.228;2023-07-20T00:25:29;20.40;99.90
10530;DHT22;5313;48.834;9.228;2023-07-20T00:27:55;20.50;99.90
10530;DHT22;5313;48.834;9.228;2023-07-20T00:30:20;20.50;99.90
10530;DHT22;5313;48.834;9.228;2023-07-20T00:32:46;20.40;99.90
10530;DHT22;5313;48.834;9.228;2023-07-20T00:35:11;20.40;99.90
10530;DHT22;5313;48.834;9.228;2023-07-20T00:37:38;20.30;99.90
10530;DHT22;5313;48.834;9.228;2023-07-20T00:40:04;20.30;99.90
10530;DHT22;5313;48.834;9.228;2023-07-20T00:42:31;20.30;99.90
10530;DHT22;5313;48.834;9.228;2023-07-20T00:44:56;20.20;99.90
10530;DHT22;5313;48.834;9.228;2023-07-20T00:47:22;20.20;99.90
10530;DHT22;5313;48.834;9.228;2023-07-20T00:49:48;20.10;99.90
10530;DHT22;5313;48.834;9.228;2023-07-20T00:52:13;20.10;99.90
10530;DHT22;5313;48.834;9.228;2023-07-20T00:54:42;20.00;99.90
10530;DHT22;5313;48.834;9.228;2023-07-20T00:57:09;20.00;99.90
10530;DHT22;5313;48.834;9.228;2023-07-20T00:59:35;20.00;99.90
10530;DHT22;5313;48.834;9.228;2023-07-20T01:02:02;20.00;99.90
10530;DHT22;5313;48.834;9.228;2023-07-20T01:04:28;20.00;99.90
10530;DHT22;5313;48.834;9.228;2023-07-20T01:10:08;19.90;99.90
10530;DHT22;5313;48.834;9.228;2023-07-20T01:12:42;20.00;99.90
10530;DHT22;5313;48.834;9.228;2023-07-20T01:15:09;20.00;99.90
10530;DHT22;5313;48.834;9.228;2023-07-20T01:17:35;20.10;99.90
10530;DHT22;5313;48.834;9.228;2023-07-20T01:20:01;20.10;99.90
10530;DHT22;5313;48.834;9.228;2023-07-20T01:28:37;19.70;99.90
10530;DHT22;5313;48.834;9.228;2023-07-20T01:33:44;19.40;99.90
10530;DHT22;5313;48.834;9.228;2023-07-20T01:36:10;19.30;99.90
10530;DHT22;5313;48.834;9.228;2023-07-20T01:38:37;19.50;99.90
10530;DHT22;5313;48.834;9.228;2023-07-20T01:41:03;19.40;99.90
10530;DHT22;5313;48.834;9.228;2023-07-20T01:43:29;19.20;99.90
10530;DHT22;5313;48.834;9.228;2023-07-20T01:45:54;19.20;99.90
10530;DHT22;5313;48.834;9.228;2023-07-20T01:48:20;19.30;99.90
10530;DHT22;5313;48.834;9.228;2023-07-20T01:50:45;19.30;99.90
10530;DHT22;5313;48.834;9.228;2023-07-20T01:53:11;19.20;99.90
10530;DHT22;5313;48.834;9.228;2023-07-20T01:55:36;19.10;99.90
10530;DHT22;5313;48.834;9.228;2023-07-20T01:58:02;19.20;99.90
10530;DHT22;5313;48.834;9.228;2023-07-20T02:00:29;19.10;99.90
10530;DHT22;5313;48.834;9.228;2023-07-20T02:02:54;19.00;99.90
10530;DHT22;5313;48.834;9.228;2023-07-20T02:05:20;19.10;99.90
10530;DHT22;5313;48.834;9.228;2023-07-20T02:07:45;19.00;99.90
10530;DHT22;5313;48.834;9.228;2023-07-20T02:10:11;18.90;99.90
10530;DHT22;5313;48.834;9.228;2023-07-20T02:12:36;19.00;99.90
10530;DHT22;5313;48.834;9.228;2023-07-20T02:15:02;19.10;99.90
10530;DHT22;5313;48.834;9.228;2023-07-20T02:17:28;19.00;99.90
10530;DHT22;5313;48.834;9.228;2023-07-20T02:19:54;19.00;99.90
10530;DHT22;5313;48.834;9.228;2023-07-20T02:22:21;19.00;99.90
10530;DHT22;5313;48.834;9.228;2023-07-20T02:24:46;19.00;99.90
10530;DHT22;5313;48.834;9.228;2023-07-20T02:27:12;19.00;99.90
10530;DHT22;5313;48.834;9.228;2023-07-20T02:29:38;19.00;99.90
10530;DHT22;5313;48.834;9.228;2023-07-20T02:32:03;18.80;99.90
10530;DHT22;5313;48.834;9.228;2023-07-20T02:34:30;18.80;99.90
10530;DHT22;5313;48.834;9.228;2023-07-20T02:36:56;18.70;99.90
10530;DHT22;5313;48.834;9.228;2023-07-20T02:39:23;18.70;99.90
10530;DHT22;5313;48.834;9.228;2023-07-20T02:41:48;18.90;99.90
10530;DHT22;5313;48.834;9.228;2023-07-20T02:44:14;18.80;99.90
10530;DHT22;5313;48.834;9.228;2023-07-20T02:46:40;18.80;99.90
10530;DHT22;5313;48.834;9.228;2023-07-20T02:49:06;18.80;99.90
10530;DHT22;5313;48.834;9.228;2023-07-20T02:51:31;18.80;99.90
10530;DHT22;5313;48.834;9.228;2023-07-20T02:53:57;20.60;99.90
10530;DHT22;5313;48.834;9.228;2023-07-20T02:56:22;18.60;99.90
10530;DHT22;5313;48.834;9.228;2023-07-20T02:58:48;18.90;99.90
10530;DHT22;5313;48.834;9.228;2023-07-20T03:01:14;18.90;99.90
10530;DHT22;5313;48.834;9.228;2023-07-20T03:03:41;19.10;99.90
10530;DHT22;5313;48.834;9.228;2023-07-20T03:06:07;19.30;99.90
10530;DHT22;5313;48.834;9.228;2023-07-20T03:08:34;19.70;99.90
10530;DHT22;5313;48.834;9.228;2023-07-20T03:11:01;19.30;99.90
10530;DHT22;5313;48.834;9.228;2023-07-20T03:13:26;19.10;99.90
10530;DHT22;5313;48.834;9.228;2023-07-20T03:15:55;18.90;99.90
10530;DHT22;5313;48.834;9.228;2023-07-20T03:18:20;18.80;99.90
10530;DHT22;5313;48.834;9.228;2023-07-20T03:20:46;18.80;99.90
10530;DHT22;5313;48.834;9.228;2023-07-20T03:23:11;18.50;99.90
10530;DHT22;5313;48.834;9.228;2023-07-20T03:25:37;18.90;99.90
10530;DHT22;5313;48.834;9.228;2023-07-20T03:28:04;19.10;99.90
10530;DHT22;5313;48.834;9.228;2023-07-20T03:30:29;19.00;99.90
10530;DHT22;5313;48.834;9.228;2023-07-20T03:32:54;19.00;99.90
10530;DHT22;5313;48.834;9.228;2023-07-20T03:35:20;19.30;99.90
10530;DHT22;5313;48.834;9.228;2023-07-20T03:37:45;19.60;99.90
10530;DHT22;5313;48.834;9.228;2023-07-20T03:40:11;19.50;99.90
10530;DHT22;5313;48.834;9.228;2023-07-20T03:42:36;19.20;99.90
10530;DHT22;5313;48.834;9.228;2023-07-20T03:45:03;19.30;99.90
10530;DHT22;5313;48.834;9.228;2023-07-20T03:47:29;19.40;99.90
10530;DHT22;5313;48.834;9.228;2023-07-20T03:49:55;19.60;99.90
10530;DHT22;5313;48.834;9.228;2023-07-20T03:52:20;19.60;99.90
10530;DHT22;5313;48.834;9.228;2023-07-20T03:54:46;19.60;99.90
10530;DHT22;5313;48.834;9.228;2023-07-20T03:57:11;19.50;99.90
10530;DHT22;5313;48.834;9.228;2023-07-20T03:59:38;19.70;99.90
10530;DHT22;5313;48.834;9.228;2023-07-20T04:02:04;19.40;99.90
10530;DHT22;5313;48.834;9.228;2023-07-20T04:04:31;19.60;99.90
10530;DHT22;5313;48.834;9.228;2023-07-20T04:06:56;19.60;99.90
10530;DHT22;5313;48.834;9.228;2023-07-20T04:09:22;19.60;99.90
10530;DHT22;5313;48.834;9.228;2023-07-20T04:11:47;19.60;99.90
10530;DHT22;5313;48.834;9.228;2023-07-20T04:14:13;19.80;99.90
10530;DHT22;5313;48.834;9.228;2023-07-20T04:16:38;19.60;99.90
10530;DHT22;5313;48.834;9.228;2023-07-20T04:19:04;19.40;99.90
10530;DHT22;5313;48.834;9.228;2023-07-20T04:21:29;19.20;99.90
10530;DHT22;5313;48.834;9.228;2023-07-20T04:23:55;19.00;99.90
10530;DHT22;5313;48.834;9.228;2023-07-20T04:26:20;19.10;99.90
10530;DHT22;5313;48.834;9.228;2023-07-20T04:28:46;18.70;99.90
10530;DHT22;5313;48.834;9.228;2023-07-20T04:31:14;18.70;99.90
10530;DHT22;5313;48.834;9.228;2023-07-20T04:33:40;19.00;99.90
10530;DHT22;5313;48.834;9.228;2023-07-20T04:36:05;19.00;99.90
10530;DHT22;5313;48.834;9.228;2023-07-20T04:38:31;19.30;99.90
10530;DHT22;5313;48.834;9.228;2023-07-20T04:40:56;19.50;99.90
10530;DHT22;5313;48.834;9.228;2023-07-20T04:43:22;19.80;99.90
10530;DHT22;5313;48.834;9.228;2023-07-20T04:45:47;19.60;99.90
10530;DHT22;5313;48.834;9.228;2023-07-20T04:48:14;19.60;99.90
10530;DHT22;5313;48.834;9.228;2023-07-20T04:50:41;19.20;99.90
10530;DHT22;5313;48.834;9.228;2023-07-20T04:53:08;19.00;99.90
10530;DHT22;5313;48.834;9.228;2023-07-20T04:55:35;19.10;99.90
10530;DHT22;5313;48.834;9.228;2023-07-20T04:58:02;18.90;99.90
10530;DHT22;5313;48.834;9.228;2023-07-20T05:00:29;19.10;99.90
10530;DHT22;5313;48.834;9.228;2023-07-20T05:02:55;19.20;99.90
10530;DHT22;5313;48.834;9.228;2023-07-20T05:05:21;19.30;99.90
10530;DHT22;5313;48.834;9.228;2023-07-20T05:07:46;19.10;99.90
10530;DHT22;5313;48.834;9.228;2023-07-20T05:10:12;19.40;99.90
10530;DHT22;5313;48.834;9.228;2023-07-20T05:12:37;19.30;99.90
10530;DHT22;5313;48.834;9.228;2023-07-20T05:15:03;19.50;99.90
10530;DHT22;5313;48.834;9.228;2023-07-20T05:17:29;19.50;99.90
10530;DHT22;5313;48.834;9.228;2023-07-20T05:19:55;19.30;99.90
10530;DHT22;5313;48.834;9.228;2023-07-20T05:22:20;19.40;99.90
10530;DHT22;5313;48.834;9.228;2023-07-20T05:24:46;19.40;99.90
10530;DHT22;5313;48.834;9.228;2023-07-20T05:27:11;19.50;99.90
10530;DHT22;5313;48.834;9.228;2023-07-20T05:29:37;19.30;99.90
10530;DHT22;5313;48.834;9.228;2023-07-20T05:32:03;19.20;99.90
10530;DHT22;5313;48.834;9.228;2023-07-20T05:34:29;19.10;99.90
10530;DHT22;5313;48.834;9.228;2023-07-20T05:36:55;19.10;99.90
10530;DHT22;5313;48.834;9.228;2023-07-20T05:39:20;19.10;99.90
10530;DHT22;5313;48.834;9.228;2023-07-20T05:41:46;19.10;99.90
10530;DHT22;5313;48.834;9.228;2023-07-20T05:44:12;19.10;99.90
10530;DHT22;5313;48.834;9.228;2023-07-20T05:46:37;19.20;99.90
10530;DHT22;5313;48.834;9.228;2023-07-20T05:49:03;19.30;99.90
10530;DHT22;5313;48.834;9.228;2023-07-20T05:51:28;19.30;99.90
10530;DHT22;5313;48.834;9.228;2023-07-20T05:53:54;19.40;99.90
10530;DHT22;5313;48.834;9.228;2023-07-20T05:56:19;19.50;99.90
10530;DHT22;5313;48.834;9.228;2023-07-20T05:58:45;19.70;99.90
10530;DHT22;5313;48.834;9.228;2023-07-20T06:01:11;19.80;99.90
10530;DHT22;5313;48.834;9.228;2023-07-20T06:03:36;19.80;99.90
10530;DHT22;5313;48.834;9.228;2023-07-20T06:06:03;20.00;99.90
10530;DHT22;5313;48.834;9.228;2023-07-20T06:08:30;20.00;99.90
10530;DHT22;5313;48.834;9.228;2023-07-20T06:10:55;20.00;99.90
10530;DHT22;5313;48.834;9.228;2023-07-20T06:13:21;19.90;99.90
10530;DHT22;5313;48.834;9.228;2023-07-20T06:15:47;19.90;99.90
10530;DHT22;5313;48.834;9.228;2023-07-20T06:18:13;20.00;99.90
10530;DHT22;5313;48.834;9.228;2023-07-20T06:20:38;20.20;99.90
10530;DHT22;5313;48.834;9.228;2023-07-20T06:23:04;20.20;99.90
10530;DHT22;5313;48.834;9.228;2023-07-20T06:25:30;20.40;99.90
10530;DHT22;5313;48.834;9.228;2023-07-20T06:27:55;20.50;99.90
10530;DHT22;5313;48.834;9.228;2023-07-20T06:30:21;20.50;99.90
10530;DHT22;5313;48.834;9.228;2023-07-20T06:32:47;20.50;99.90
10530;DHT22;5313;48.834;9.228;2023-07-20T06:35:14;20.50;99.90
10530;DHT22;5313;48.834;9.228;2023-07-20T06:37:39;20.60;99.90
10530;DHT22;5313;48.834;9.228;2023-07-20T06:40:06;20.80;99.90
10530;DHT22;5313;48.834;9.228;2023-07-20T06:42:34;20.90;99.90
10530;DHT22;5313;48.834;9.228;2023-07-20T06:44:59;21.00;99.90
10530;DHT22;5313;48.834;9.228;2023-07-20T06:47:25;21.00;99.90
10530;DHT22;5313;48.834;9.228;2023-07-20T06:49:50;21.10;99.90
10530;DHT22;5313;48.834;9.228;2023-07-20T06:52:16;21.10;99.90
10530;DHT22;5313;48.834;9.228;2023-07-20T06:54:41;21.10;99.90
10530;DHT22;5313;48.834;9.228;2023-07-20T06:57:07;21.20;99.90
10530;DHT22;5313;48.834;9.228;2023-07-20T06:59:32;21.30;99.90
10530;DHT22;5313;48.834;9.228;2023-07-20T07:01:58;21.50;99.90
10530;DHT22;5313;48.834;9.228;2023-07-20T07:04:23;21.70;99.90
10530;DHT22;5313;48.834;9.228;2023-07-20T07:06:49;21.60;99.90
10530;DHT22;5313;48.834;9.228;2023-07-20T07:09:15;21.60;99.90
10530;DHT22;5313;48.834;9.228;2023-07-20T07:11:40;21.70;99.90
10530;DHT22;5313;48.834;9.228;2023-07-20T07:14:05;21.60;99.90
10530;DHT22;5313;48.834;9.228;2023-07-20T07:16:31;21.60;99.90
10530;DHT22;5313;48.834;9.228;2023-07-20T07:18:56;21.70;99.90
10530;DHT22;5313;48.834;9.228;2023-07-20T07:21:22;21.70;99.90
10530;DHT22;5313;48.834;9.228;2023-07-20T07:23:48;21.90;99.90
10530;DHT22;5313;48.834;9.228;2023-07-20T07:26:14;21.70;99.90
10530;DHT22;5313;48.834;9.228;2023-07-20T07:28:40;21.80;99.90
10530;DHT22;5313;48.834;9.228;2023-07-20T07:31:06;21.80;99.90
10530;DHT22;5313;48.834;9.228;2023-07-20T07:33:32;21.90;99.90
10530;DHT22;5313;48.834;9.228;2023-07-20T07:35:57;22.10;99.90
10530;DHT22;5313;48.834;9.228;2023-07-20T07:38:23;22.10;99.90
10530;DHT22;5313;48.834;9.228;2023-07-20T07:40:49;22.00;99.90
10530;DHT22;5313;48.834;9.228;2023-07-20T07:43:14;22.10;99.90
10530;DHT22;5313;48.834;9.228;2023-07-20T07:45:40;22.20;99.90
10530;DHT22;5313;48.834;9.228;2023-07-20T07:48:06;22.40;99.90
10530;DHT22;5313;48.834;9.228;2023-07-20T07:50:33;22.40;99.90
10530;DHT22;5313;48.834;9.228;2023-07-20T07:52:58;22.40;99.90
10530;DHT22;5313;48.834;9.228;2023-07-20T07:55:24;22.40;99.90
10530;DHT22;5313;48.834;9.228;2023-07-20T07:57:52;22.50;99.90
10530;DHT22;5313;48.834;9.228;2023-07-20T08:00:17;22.60;99.90
10530;DHT22;5313;48.834;9.228;2023-07-20T08:02:44;22.50;99.90
10530;DHT22;5313;48.834;9.228;2023-07-20T08:05:12;22.40;99.90
10530;DHT22;5313;48.834;9.228;2023-07-20T08:07:37;22.40;99.90
10530;DHT22;5313;48.834;9.228;2023-07-20T08:10:04;22.30;99.90
10530;DHT22;5313;48.834;9.228;2023-07-20T08:12:30;22.40;99.90
10530;DHT22;5313;48.834;9.228;2023-07-20T08:14:55;22.40;99.90
10530;DHT22;5313;48.834;9.228;2023-07-20T08:17:21;22.40;99.90
10530;DHT22;5313;48.834;9.228;2023-07-20T08:19:46;22.40;99.90
10530;DHT22;5313;48.834;9.228;2023-07-20T08:22:12;22.40;99.90
10530;DHT22;5313;48.834;9.228;2023-07-20T08:24:41;22.30;99.90
10530;DHT22;5313;48.834;9.228;2023-07-20T08:27:08;22.30;99.90
10530;DHT22;5313;48.834;9.228;2023-07-20T08:29:34;22.10;99.90
10530;DHT22;5313;48.834;9.228;2023-07-20T08:32:00;21.90;99.90
10530;DHT22;5313;48.834;9.228;2023-07-20T08:34:25;21.80;99.90
10530;DHT22;5313;48.834;9.228;2023-07-20T08:36:51;21.70;99.90
10530;DHT22;5313;48.834;9.228;2023-07-20T08:39:16;21.90;99.90
10530;DHT22;5313;48.834;9.228;2023-07-20T08:41:46;22.10;99.90
10530;DHT22;5313;48.834;9.228;2023-07-20T08:44:12;22.20;99.90
10530;DHT22;5313;48.834;9.228;2023-07-20T08:46:38;22.10;99.90
10530;DHT22;5313;48.834;9.228;2023-07-20T08:49:06;22.40;99.90
10530;DHT22;5313;48.834;9.228;2023-07-20T08:51:32;22.50;99.90
10530;DHT22;5313;48.834;9.228;2023-07-20T08:53:58;22.70;99.90
10530;DHT22;5313;48.834;9.228;2023-07-20T08:56:26;22.90;99.90
10530;DHT22;5313;48.834;9.228;2023-07-20T08:58:53;23.10;99.00
10530;DHT22;5313;48.834;9.228;2023-07-20T09:01:20;23.30;99.90
10530;DHT22;5313;48.834;9.228;2023-07-20T09:03:46;23.00;99.50
10530;DHT22;5313;48.834;9.228;2023-07-20T09:06:12;22.70;99.90
10530;DHT22;5313;48.834;9.228;2023-07-20T09:08:39;22.90;99.90
10530;DHT22;5313;48.834;9.228;2023-07-20T09:11:05;23.10;97.80
10530;DHT22;5313;48.834;9.228;2023-07-20T09:13:34;22.90;97.70
10530;DHT22;5313;48.834;9.228;2023-07-20T09:16:00;22.90;98.30
10530;DHT22;5313;48.834;9.228;2023-07-20T09:18:27;23.30;96.90
10530;DHT22;5313;48.834;9.228;2023-07-20T09:21:06;23.50;96.90
10530;DHT22;5313;48.834;9.228;2023-07-20T09:23:38;23.50;97.50
10530;DHT22;5313;48.834;9.228;2023-07-20T09:26:14;23.20;98.20
10530;DHT22;5313;48.834;9.228;2023-07-20T09:28:56;23.00;99.40
10530;DHT22;5313;48.834;9.228;2023-07-20T09:31:22;23.10;98.80
10530;DHT22;5313;48.834;9.228;2023-07-20T09:33:49;23.10;98.10
10530;DHT22;5313;48.834;9.228;2023-07-20T09:36:15;23.00;98.40
10530;DHT22;5313;48.834;9.228;2023-07-20T09:38:44;22.60;97.00
10530;DHT22;5313;48.834;9.228;2023-07-20T09:41:14;22.80;97.50
10530;DHT22;5313;48.834;9.228;2023-07-20T09:43:43;23.00;95.90
10530;DHT22;5313;48.834;9.228;2023-07-20T09:46:10;23.20;96.00
10530;DHT22;5313;48.834;9.228;2023-07-20T09:48:36;23.40;95.70
10530;DHT22;5313;48.834;9.228;2023-07-20T09:51:02;23.70;95.90
10530;DHT22;5313;48.834;9.228;2023-07-20T09:53:28;23.50;93.00
10530;DHT22;5313;48.834;9.228;2023-07-20T09:55:55;23.10;93.30
10530;DHT22;5313;48.834;9.228;2023-07-20T09:58:21;22.90;93.80
10530;DHT22;5313;48.834;9.228;2023-07-20T10:00:49;23.50;93.50
10530;DHT22;5313;48.834;9.228;2023-07-20T10:03:18;24.10;91.50
10530;DHT22;5313;48.834;9.228;2023-07-20T10:05:54;24.10;90.70
10530;DHT22;5313;48.834;9.228;2023-07-20T10:08:21;24.20;89.40
10530;DHT22;5313;48.834;9.228;2023-07-20T10:10:49;24.30;87.00
10530;DHT22;5313;48.834;9.228;2023-07-20T10:13:18;24.40;85.30
10530;DHT22;5313;48.834;9.228;2023-07-20T10:15:50;22.70;84.40
10530;DHT22;5313;48.834;9.228;2023-07-20T10:18:31;24.30;85.50
10530;DHT22;5313;48.834;9.228;2023-07-20T10:21:00;24.30;81.50
10530;DHT22;5313;48.834;9.228;2023-07-20T10:23:30;24.00;82.50
10530;DHT22;5313;48.834;9.228;2023-07-20T10:25:57;24.00;80.60
10530;DHT22;5313;48.834;9.228;2023-07-20T10:28:24;23.80;80.50
10530;DHT22;5313;48.834;9.228;2023-07-20T10:30:50;23.80;81.70
10530;DHT22;5313;48.834;9.228;2023-07-20T10:33:17;24.30;79.20
10530;DHT22;5313;48.834;9.228;2023-07-20T10:36:05;24.70;77.40
10530;DHT22;5313;48.834;9.228;2023-07-20T10:41:21;24.60;74.60
10530;DHT22;5313;48.834;9.228;2023-07-20T10:43:48;24.60;74.80
10530;DHT22;5313;48.834;9.228;2023-07-20T10:46:14;24.70;75.70
10530;DHT22;5313;48.834;9.228;2023-07-20T10:48:59;24.90;71.20
10530;DHT22;5313;48.834;9.228;2023-07-20T10:51:26;24.70;72.20
10530;DHT22;5313;48.834;9.228;2023-07-20T10:53:51;25.10;70.10
10530;DHT22;5313;48.834;9.228;2023-07-20T10:56:22;24.80;69.10
10530;DHT22;5313;48.834;9.228;2023-07-20T10:58:48;25.10;69.10
10530;DHT22;5313;48.834;9.228;2023-07-20T11:01:16;25.00;71.10
10530;DHT22;5313;48.834;9.228;2023-07-20T11:03:42;25.30;68.40
10530;DHT22;5313;48.834;9.228;2023-07-20T11:09:22;25.10;66.60
10530;DHT22;5313;48.834;9.228;2023-07-20T11:11:46;25.00;67.70
10530;DHT22;5313;48.834;9.228;2023-07-20T11:14:22;25.70;67.10
10530;DHT22;5313;48.834;9.228;2023-07-20T11:16:49;25.70;66.80
10530;DHT22;5313;48.834;9.228;2023-07-20T11:19:21;26.00;64.60
10530;DHT22;5313;48.834;9.228;2023-07-20T11:21:56;26.10;63.20
10530;DHT22;5313;48.834;9.228;2023-07-20T11:24:23;25.90;62.50
10530;DHT22;5313;48.834;9.228;2023-07-20T11:26:50;26.20;64.10
10530;DHT22;5313;48.834;9.228;2023-07-20T11:29:20;26.40;62.90
10530;DHT22;5313;48.834;9.228;2023-07-20T11:31:47;26.40;61.00
10530;DHT22;5313;48.834;9.228;2023-07-20T11:34:16;26.70;60.70
10530;DHT22;5313;48.834;9.228;2023-07-20T11:36:46;26.50;60.30
10530;DHT22;5313;48.834;9.228;2023-07-20T11:39:21;26.80;60.00
10530;DHT22;5313;48.834;9.228;2023-07-20T11:41:49;26.60;60.20
10530;DHT22;5313;48.834;9.228;2023-07-20T11:44:16;27.00;59.10
10530;DHT22;5313;48.834;9.228;2023-07-20T11:46:43;27.20;57.80
10530;DHT22;5313;48.834;9.228;2023-07-20T11:49:09;27.10;57.10
10530;DHT22;5313;48.834;9.228;2023-07-20T11:51:36;27.10;56.50
10530;DHT22;5313;48.834;9.228;2023-07-20T11:54:03;27.10;55.80
10530;DHT22;5313;48.834;9.228;2023-07-20T11:56:29;27.00;56.40
10530;DHT22;5313;48.834;9.228;2023-07-20T11:58:57;26.60;56.50
10530;DHT22;5313;48.834;9.228;2023-07-20T12:01:26;26.70;56.50
10530;DHT22;5313;48.834;9.228;2023-07-20T12:03:57;27.40;56.80
10530;DHT22;5313;48.834;9.228;2023-07-20T12:06:24;27.70;55.80
10530;DHT22;5313;48.834;9.228;2023-07-20T12:08:50;27.30;54.90
10530;DHT22;5313;48.834;9.228;2023-07-20T12:11:35;27.60;55.40
10530;DHT22;5313;48.834;9.228;2023-07-20T12:14:02;27.20;55.20
10530;DHT22;5313;48.834;9.228;2023-07-20T12:16:28;26.70;55.30
10530;DHT22;5313;48.834;9.228;2023-07-20T12:19:04;26.70;55.80
10530;DHT22;5313;48.834;9.228;2023-07-20T12:21:30;26.90;55.50
10530;DHT22;5313;48.834;9.228;2023-07-20T12:23:57;27.80;54.80
10530;DHT22;5313;48.834;9.228;2023-07-20T12:26:24;27.60;54.00
10530;DHT22;5313;48.834;9.228;2023-07-20T12:28:50;28.00;54.80
10530;DHT22;5313;48.834;9.228;2023-07-20T12:31:16;28.20;53.60
10530;DHT22;5313;48.834;9.228;2023-07-20T12:33:42;27.90;53.10
10530;DHT22;5313;48.834;9.228;2023-07-20T12:36:08;28.20;54.30
10530;DHT22;5313;48.834;9.228;2023-07-20T12:38:34;28.20;52.30
10530;DHT22;5313;48.834;9.228;2023-07-20T12:41:03;28.10;53.40
10530;DHT22;5313;48.834;9.228;2023-07-20T12:43:29;28.00;53.10
10530;DHT22;5313;48.834;9.228;2023-07-20T12:45:55;27.80;54.00
10530;DHT22;5313;48.834;9.228;2023-07-20T12:48:21;28.30;52.80
10530;DHT22;5313;48.834;9.228;2023-07-20T12:50:46;28.20;51.90
10530;DHT22;5313;48.834;9.228;2023-07-20T12:53:12;28.70;52.00
10530;DHT22;5313;48.834;9.228;2023-07-20T12:55:38;28.90;51.00
10530;DHT22;5313;48.834;9.228;2023-07-20T12:58:04;28.90;50.40
10530;DHT22;5313;48.834;9.228;2023-07-20T13:00:30;29.10;50.00
10530;DHT22;5313;48.834;9.228;2023-07-20T13:02:57;29.30;48.50
10530;DHT22;5313;48.834;9.228;2023-07-20T13:05:23;29.30;48.20
10530;DHT22;5313;48.834;9.228;2023-07-20T13:07:48;29.00;50.30
10530;DHT22;5313;48.834;9.228;2023-07-20T13:10:14;29.00;49.30
10530;DHT22;5313;48.834;9.228;2023-07-20T13:12:39;28.60;49.90
10530;DHT22;5313;48.834;9.228;2023-07-20T13:15:07;29.00;49.30
10530;DHT22;5313;48.834;9.228;2023-07-20T13:17:34;29.10;48.90
10530;DHT22;5313;48.834;9.228;2023-07-20T13:20:00;29.70;47.70
10530;DHT22;5313;48.834;9.228;2023-07-20T13:22:26;29.70;49.30
10530;DHT22;5313;48.834;9.228;2023-07-20T13:24:52;30.10;46.10
10530;DHT22;5313;48.834;9.228;2023-07-20T13:27:19;30.30;46.90
10530;DHT22;5313;48.834;9.228;2023-07-20T13:29:45;29.90;46.20
10530;DHT22;5313;48.834;9.228;2023-07-20T13:32:13;30.10;46.40
10530;DHT22;5313;48.834;9.228;2023-07-20T13:34:43;29.50;47.10
10530;DHT22;5313;48.834;9.228;2023-07-20T13:37:09;29.80;45.80
10530;DHT22;5313;48.834;9.228;2023-07-20T13:39:35;30.00;45.30
10530;DHT22;5313;48.834;9.228;2023-07-20T13:42:00;29.90;45.30
10530;DHT22;5313;48.834;9.228;2023-07-20T13:44:33;29.10;45.60
10530;DHT22;5313;48.834;9.228;2023-07-20T13:46:59;29.30;46.50
10530;DHT22;5313;48.834;9.228;2023-07-20T13:49:25;28.60;46.40
10530;DHT22;5313;48.834;9.228;2023-07-20T13:51:50;27.70;47.90
10530;DHT22;5313;48.834;9.228;2023-07-20T13:54:16;27.90;49.40
10530;DHT22;5313;48.834;9.228;2023-07-20T13:56:41;28.40;47.50
10530;DHT22;5313;48.834;9.228;2023-07-20T13:59:07;28.30;48.50
10530;DHT22;5313;48.834;9.228;2023-07-20T14:01:33;29.10;48.70
10530;DHT22;5313;48.834;9.228;2023-07-20T14:04:00;28.70;47.20
10530;DHT22;5313;48.834;9.228;2023-07-20T14:06:29;29.10;47.00
10530;DHT22;5313;48.834;9.228;2023-07-20T14:08:54;29.80;47.40
10530;DHT22;5313;48.834;9.228;2023-07-20T14:11:20;30.40;46.40
10530;DHT22;5313;48.834;9.228;2023-07-20T14:13:45;31.00;44.90
10530;DHT22;5313;48.834;9.228;2023-07-20T14:16:11;30.50;44.90
10530;DHT22;5313;48.834;9.228;2023-07-20T14:18:36;30.40;45.10
10530;DHT22;5313;48.834;9.228;2023-07-20T14:21:02;30.70;45.10
10530;DHT22;5313;48.834;9.228;2023-07-20T14:23:29;30.70;43.20
10530;DHT22;5313;48.834;9.228;2023-07-20T14:25:54;30.70;44.90
10530;DHT22;5313;48.834;9.228;2023-07-20T14:28:21;30.30;44.20
10530;DHT22;5313;48.834;9.228;2023-07-20T14:30:46;30.90;43.80
10530;DHT22;5313;48.834;9.228;2023-07-20T14:33:12;32.00;43.80
10530;DHT22;5313;48.834;9.228;2023-07-20T14:35:37;31.10;42.30
10530;DHT22;5313;48.834;9.228;2023-07-20T14:38:03;30.90;42.50
10530;DHT22;5313;48.834;9.228;2023-07-20T14:40:28;30.50;43.20
10530;DHT22;5313;48.834;9.228;2023-07-20T14:42:55;30.40;43.20
10530;DHT22;5313;48.834;9.228;2023-07-20T14:45:21;30.00;43.10
10530;DHT22;5313;48.834;9.228;2023-07-20T14:47:46;28.50;44.00
10530;DHT22;5313;48.834;9.228;2023-07-20T14:50:19;28.40;44.20
10530;DHT22;5313;48.834;9.228;2023-07-20T14:52:44;28.60;44.50
10530;DHT22;5313;48.834;9.228;2023-07-20T14:55:10;28.90;44.50
10530;DHT22;5313;48.834;9.228;2023-07-20T14:57:36;28.80;43.90
10530;DHT22;5313;48.834;9.228;2023-07-20T15:00:01;29.10;44.50
10530;DHT22;5313;48.834;9.228;2023-07-20T15:02:28;29.50;44.20
10530;DHT22;5313;48.834;9.228;2023-07-20T15:04:54;29.40;43.70
10530;DHT22;5313;48.834;9.228;2023-07-20T15:07:21;28.20;43.90
10530;DHT22;5313;48.834;9.228;2023-07-20T15:09:47;28.50;44.00
10530;DHT22;5313;48.834;9.228;2023-07-20T15:12:13;28.30;43.80
10530;DHT22;5313;48.834;9.228;2023-07-20T15:14:40;28.90;43.70
10530;DHT22;5313;48.834;9.228;2023-07-20T15:17:06;28.40;43.70
10530;DHT22;5313;48.834;9.228;2023-07-20T15:19:32;28.30;45.90
10530;DHT22;5313;48.834;9.228;2023-07-20T15:21:59;28.20;44.90
10530;DHT22;5313;48.834;9.228;2023-07-20T15:24:25;27.90;44.60
10530;DHT22;5313;48.834;9.228;2023-07-20T15:26:51;27.40;45.20
10530;DHT22;5313;48.834;9.228;2023-07-20T15:29:16;27.90;45.30
10530;DHT22;5313;48.834;9.228;2023-07-20T15:31:42;28.00;44.40
10530;DHT22;5313;48.834;9.228;2023-07-20T15:34:07;28.70;44.40
10530;DHT22;5313;48.834;9.228;2023-07-20T15:36:33;29.00;44.80
10530;DHT22;5313;48.834;9.228;2023-07-20T15:38:58;28.20;44.30
10530;DHT22;5313;48.834;9.228;2023-07-20T15:41:24;27.60;44.90
10530;DHT22;5313;48.834;9.228;2023-07-20T15:43:49;27.90;44.60
10530;DHT22;5313;48.834;9.228;2023-07-20T15:48:46;28.20;47.10
10530;DHT22;5313;48.834;9.228;2023-07-20T15:51:12;27.40;45.70
10530;DHT22;5313;48.834;9.228;2023-07-20T15:53:38;27.30;46.80
10530;DHT22;5313;48.834;9.228;2023-07-20T15:56:04;27.90;46.40
10530;DHT22;5313;48.834;9.228;2023-07-20T15:58:29;28.30;45.30
10530;DHT22;5313;48.834;9.228;2023-07-20T16:00:55;28.10;45.00